x

Muskegon, Mi (mkgm4) Weather Station

4:40am - Thu 30th Jun 2016 All times are CDT. -5 hours from GMT.

  • Wind
    13mph
  • Air Temp 57°f
  • Sea Pressure 1017.7mb
  • Muskegon, Mi
  • Muskegon, Mi

More Historic Weather Station data

Upgrade to MSW Pro to gain access to the past 30 days of data for over 8000 Wavebouys and Weather Stations around the globe.

Join Pro

Comparision Forecast

View Surf forecast
   
Thu 06/30 4:40am 13
mph
1017.7mb 57f
4:30am 11 13 mph 1017.6mb 57f
4:20am 11
mph
1017.4mb 57f
4:10am 11
mph
1017.4mb 57f
4:00am 10
mph
1017.3mb 57f
3:50am 11
mph
1017.4mb 57f
3:40am 10
mph
1017.4mb 57f
3:30am 9
mph
1017.5mb 57f
3:20am 8 9 mph 1017.6mb 58f
3:10am 9
mph
1017.5mb 59f
3:00am 8
mph
1017.6mb 59f
2:50am 8
mph
1017.6mb 60f
2:40am 6
mph
1017.7mb 59f
2:30am 5 6 mph 1017.7mb 60f
2:20am 7
mph
1017.6mb 60f
2:10am 1 2 mph 1017.7mb 58f
2:00am 5 6 mph 1017.8mb 60f
1:50am 3 5 mph 1018.1mb 59f
1:40am 1 2 mph 1018.2mb 58f
1:30am 3
mph
1018.2mb 59f
1:20am 2
mph
1018.2mb 59f
1:10am 2
mph
1018.3mb 59f
1:00am 2
mph
1018.3mb 59f
12:50am 2 3 mph 1018.3mb 59f
12:40am 2
mph
1018.3mb 59f
12:30am 1 2 mph 1018.3mb 59f
12:20am 1
mph
1018.5mb 59f
12:10am 1
mph
1018.5mb 59f
12:00am 1
mph
1018.5mb 59f
Wed 06/29 11:50pm 1
mph
1018.7mb 59f
11:40pm 1
mph
1018.8mb 59f
11:30pm 1
mph
1019mb 59f
11:20pm 2
mph
1019.1mb 59f
11:10pm  -  mph 1019.3mb 59f
11:00pm 1
mph
1019.3mb 60f
10:50pm 1
mph
1019.3mb 60f
10:40pm 1
mph
1019.3mb 60f
10:30pm 1
mph
1019.2mb 60f
10:20pm 2 3 mph 1019.2mb 62f
10:10pm 1 2 mph 1019mb 62f
10:00pm 2
mph
1018.9mb 61f
9:50pm 1 2 mph 1018.9mb 60f
9:40pm 1 2 mph 1018.9mb 60f
9:30pm 1 2 mph 1018.7mb 60f
9:20pm 2 3 mph 1018.6mb 61f
9:10pm 3 5 mph 1018.4mb 61f
9:00pm 3 5 mph 1018.2mb 62f
8:50pm 3 5 mph 1018.2mb 62f
8:40pm 3 5 mph 1018.2mb 62f
8:30pm 5 6 mph 1018.2mb 62f
8:20pm 3 5 mph 1018.2mb 62f
8:10pm 3
mph
1018.2mb 62f
8:00pm 5
mph
1018.2mb 63f
7:50pm 6
mph
1018.4mb 63f
7:40pm 3 5 mph 1018.3mb 64f
7:30pm 5 6 mph 1018.3mb 64f
7:20pm 6 7 mph 1018.3mb 64f
7:10pm 6 7 mph 1018.3mb 64f
7:00pm 5 6 mph 1018.4mb 64f
6:50pm 5 6 mph 1018.6mb 64f
6:40pm 5 6 mph 1018.6mb 64f
6:30pm 7
mph
1018.7mb 64f
6:20pm 7
mph
1018.8mb 63f
6:10pm 6
mph
1018.8mb 63f
6:00pm 6 7 mph 1018.9mb 63f
5:50pm 5 7 mph 1019.1mb 64f
5:40pm 7 8 mph 1019.3mb 64f
5:30pm 7 8 mph 1019.3mb 64f
5:20pm 6 7 mph 1019.3mb 64f
5:10pm 5 7 mph 1019.2mb 64f
5:00pm 7 8 mph 1019.3mb 64f
4:50pm 7 8 mph 1019.2mb 64f
4:40pm 8
mph
1019.2mb 64f
4:30pm 7 8 mph 1019.3mb 64f
4:20pm 7 8 mph 1019.3mb 64f
4:10pm 8 9 mph 1019.6mb 64f
4:00pm 7 9 mph 1019.6mb 65f
3:50pm 8 9 mph 1019.8mb 65f
3:40pm 9 10 mph 1019.8mb 65f
3:30pm 7 8 mph 1019.8mb 64f
3:20pm 8 9 mph 1020.2mb 64f
3:10pm 8 11 mph 1020.2mb 64f
3:00pm 8 9 mph 1020.1mb 65f
2:50pm 8 9 mph 1020.2mb 64f
2:40pm 9 10 mph 1020.2mb 65f
2:30pm 10 11 mph 1020.3mb 64f
2:20pm 10 11 mph 1020.4mb 65f
2:10pm 9 10 mph 1020.4mb 64f
2:00pm 8 9 mph 1020.3mb 64f
1:50pm 8 9 mph 1020.3mb 63f
1:40pm 9
mph
1020.3mb 64f
1:30pm 10
mph
1020.3mb 63f
1:20pm 10
mph
1020.5mb 63f
1:10pm 8 9 mph 1020.5mb 62f
1:00pm 7 8 mph 1020.5mb 62f
12:50pm 7 8 mph 1020.3mb 62f
12:40pm 7 8 mph 1020.4mb 62f
12:30pm 9 10 mph 1020.5mb 63f
12:20pm 10 11 mph 1020.7mb 62f
12:10pm 10 11 mph 1020.7mb 62f
12:00pm 10 11 mph 1020.9mb 62f
11:50am 10
mph
1020.9mb 62f
11:40am 9 10 mph 1020.8mb 62f
11:30am 8 9 mph 1020.9mb 61f
11:20am 8 9 mph 1021mb 61f
11:10am 10
mph
1021.1mb 61f
11:00am 8 9 mph 1021.1mb 61f
10:50am 8
mph
1021.1mb 61f
10:40am 9
mph
1021.1mb 60f
10:30am 8
mph
1021.1mb 60f
10:20am 6
mph
1021.1mb 60f
10:10am 6 7 mph 1021.3mb 60f
10:00am 6 7 mph 1021.2mb 59f
9:50am 6 7 mph 1021.2mb 59f
9:40am 9 10 mph 1021.4mb 58f
9:30am 9
mph
1021.3mb 60f
9:20am 7
mph
1021.5mb 61f
9:10am 3 5 mph 1021.6mb 61f
9:00am 3
mph
1021.5mb 60f
8:50am 2
mph
1021.6mb 59f
8:40am 3 5 mph 1021.4mb 58f
8:30am 2 3 mph 1021.3mb 59f
8:20am 1 2 mph 1021.3mb 59f
8:10am 1 2 mph 1021.1mb 64f
8:00am 2 3 mph 1021.2mb 60f
7:50am 2 3 mph 1021.2mb 60f
7:40am 3 6 mph 1021.1mb 63f
7:30am 6 8 mph 1021.2mb 62f
7:20am 5 6 mph 1020.9mb 62f
7:10am 7 9 mph 1021mb 61f
7:00am 7 9 mph 1021mb 60f
6:50am 9 11 mph 1021mb 60f
6:40am 10 13 mph 1020.9mb 59f
6:30am 10 13 mph 1020.6mb 59f
6:20am 10 14 mph 1020.7mb 58f
6:10am 13 15 mph 1020.7mb 58f
6:00am 13 15 mph 1020.7mb 58f
5:50am 9 13 mph 1020.8mb 58f
5:40am 10 14 mph 1020.9mb 57f
5:30am 9 13 mph 1020.9mb 56f
5:20am 11 13 mph 1021.2mb 56f
5:10am 9 10 mph 1021.5mb 55f
5:00am 9 10 mph 1021.5mb 55f
4:50am 9 10 mph 1021.5mb 55f
4:40am 10 11 mph 1021.5mb 55f
4:30am 10 14 mph 1021.5mb 55f
4:20am 10 14 mph 1021.9mb 55f
4:10am 13
mph
1021.9mb 54f
4:00am 10 13 mph 1022mb 53f
3:50am 10 11 mph 1022.2mb 52f
3:40am 10
mph
1022mb 52f
3:30am 9
mph
1021.7mb 52f
3:20am 9
mph
1021.6mb 52f
3:10am 8
mph
1021.4mb 52f
3:00am 6 7 mph 1021.2mb 52f
2:50am 6
mph
1021mb 53f
2:40am 6 7 mph 1021.1mb 53f
2:30am 6 7 mph 1020.8mb 54f
2:20am 5 6 mph 1020.6mb 54f
2:10am 7 8 mph 1020.2mb 54f
2:00am 6 7 mph 1020.3mb 54f
1:50am 6 8 mph 1020.1mb 54f
1:40am 6 8 mph 1020mb 54f
1:30am 7 11 mph 1020mb 55f
1:20am 8 10 mph 1019.8mb 55f
1:10am 8 10 mph 1020mb 56f
1:00am 8 10 mph 1019.9mb 56f
12:50am 9 10 mph 1020mb 57f
12:40am 9 11 mph 1019.9mb 57f
12:30am 8 11 mph 1020.1mb 57f
12:20am 8 10 mph 1020mb 57f
12:10am 11 14 mph 1019.9mb 58f
12:00am 10 14 mph 1020mb 58f
Tue 06/28 11:50pm 13 16 mph 1020mb 58f
11:40pm 13 15 mph 1020mb 59f
11:30pm 11 14 mph 1020mb 59f
11:20pm 13 15 mph 1020mb 59f
11:10pm 13 14 mph 1020mb 60f
11:00pm 14 18 mph 1020mb 60f
10:50pm 13 16 mph 1020mb 60f
10:40pm 13 15 mph 1020mb 60f
10:30pm 14 16 mph 1020.2mb 61f
10:20pm 14 17 mph 1020.1mb 61f
10:10pm 13 15 mph 1020.1mb 61f
10:00pm 14 17 mph 1020mb 61f
9:50pm 14 16 mph 1020mb 61f
9:40pm 15 17 mph 1020mb 62f
9:30pm 14 17 mph 1020mb 62f
9:20pm 13 17 mph 1019.8mb 62f
9:10pm 11 15 mph 1019.8mb 62f
9:00pm 11 15 mph 1019.7mb 62f
8:50pm 11 14 mph 1019.8mb 62f
8:40pm 10 14 mph 1019.8mb 63f
8:30pm 10 14 mph 1019.7mb 63f
8:20pm 10 14 mph 1019.7mb 64f
8:10pm 9 13 mph 1019.7mb 65f
8:00pm 10 13 mph 1019.7mb 65f
7:50pm 10 13 mph 1019.7mb 66f
7:40pm 11 14 mph 1019.8mb 67f
7:30pm 10 11 mph 1019.8mb 67f
7:20pm 10 14 mph 1019.8mb 68f
7:10pm 10 13 mph 1019.8mb 68f
7:00pm 11 15 mph 1019.8mb 68f
6:50pm 13 15 mph 1019.9mb 65f
6:40pm 14 17 mph 1019.9mb 64f
6:30pm 15 17 mph 1019.9mb 65f
6:20pm 15 18 mph 1019.9mb 65f
6:10pm 16 18 mph 1019.9mb 65f
6:00pm 16 21 mph 1020mb 64f
5:50pm 17 22 mph 1020mb 64f
5:40pm 18 23 mph 1020.3mb 64f
5:30pm 21 24 mph 1020.3mb 63f
5:20pm 18 24 mph 1020.3mb 63f
5:10pm 22 25 mph 1020.3mb 63f
5:00pm 21 24 mph 1020.3mb 63f
4:50pm 23 28 mph 1020.3mb 62f
4:40pm 23 30 mph 1020.3mb 63f
4:30pm 23 28 mph 1020.3mb 62f
4:20pm 23 30 mph 1020.4mb 62f
4:10pm 24 32 mph 1020.5mb 63f
4:00pm 26 30 mph 1020.4mb 62f
3:50pm 25 32 mph 1020.5mb 63f
3:40pm 28 33 mph 1020.3mb 63f
3:30pm 26 32 mph 1020.4mb 63f
3:20pm 24 33 mph 1020.5mb 63f
3:10pm 26 34 mph 1020.4mb 63f
3:00pm 29 34 mph 1020.4mb 63f
2:50pm 25 31 mph 1020.3mb 63f
2:40pm 25 31 mph 1020.5mb 63f
2:30pm 26 31 mph 1020.5mb 63f
2:20pm 25 30 mph 1020.6mb 64f
2:10pm 26 29 mph 1020.6mb 64f
2:00pm 25 30 mph 1020.8mb 63f
1:50pm 24 29 mph 1020.8mb 63f
1:40pm 26 29 mph 1020.9mb 63f
1:30pm 20 28 mph 1020.8mb 63f
1:20pm 24 28 mph 1020.8mb 63f
1:10pm 24 28 mph 1020.9mb 64f
1:00pm 22 26 mph 1021mb 63f
12:50pm 25 26 mph 1021mb 63f
12:40pm 23 26 mph 1021mb 62f
12:30pm 21 26 mph 1021mb 63f
12:20pm 25 26 mph 1021.1mb 62f
12:10pm 23 26 mph 1021.1mb 63f
12:00pm 18 23 mph 1021.2mb 62f
11:50am 20 23 mph 1021.2mb 62f
11:40am 18 20 mph 1021.3mb 63f
11:30am 15 17 mph 1021.3mb 63f
11:20am 10 13 mph 1021.1mb 64f
11:10am 9 10 mph 1021.3mb 63f
11:00am 9 11 mph 1021.2mb 65f
10:50am 7 11 mph 1021.3mb 64f
10:40am 7 9 mph 1021.3mb 64f
10:30am 11 14 mph 1021.2mb 63f
10:20am 11 14 mph 1021.2mb 62f
10:10am 11 15 mph 1021.2mb 62f
10:00am 9 15 mph 1021mb 63f
9:50am 10 14 mph 1021.1mb 62f
9:40am 8 13 mph 1021.2mb 61f
9:30am 9 13 mph 1021.3mb 60f
9:20am 8 10 mph 1021.2mb 60f
9:10am 9 11 mph 1021.3mb 59f
9:00am 10 13 mph 1021.4mb 59f
8:50am 7 9 mph 1021.3mb 59f
8:40am 10 14 mph 1021.2mb 59f
8:30am 14 17 mph 1021.2mb 59f
8:20am 11 16 mph 1021.1mb 59f
8:10am 11 16 mph 1021mb 59f
8:00am 9 11 mph 1021mb 59f
7:50am 11 14 mph 1021mb 59f
7:40am 9 15 mph 1020.9mb 59f
7:30am 9 11 mph 1021mb 59f
7:20am 13 15 mph 1020.9mb 59f
7:10am 7 9 mph 1020.8mb 60f
7:00am 10 14 mph 1020.7mb 59f
6:50am 14 17 mph 1020.8mb 59f
6:40am 11 15 mph 1020.7mb 59f
6:30am 13 15 mph 1020.5mb 59f
6:20am 9 14 mph 1020.5mb 59f
6:10am 14 16 mph 1020.5mb 59f
6:00am 9 11 mph 1020.4mb 59f
5:50am 13 15 mph 1020.3mb 59f
5:40am 11 16 mph 1020.2mb 59f
5:30am 9 14 mph 1020.2mb 59f
5:20am 14 17 mph 1020.3mb 59f
5:10am 13 15 mph 1020.2mb 59f
5:00am 15 18 mph 1020.1mb 59f
4:50am 10 16 mph 1020.2mb 59f
4:40am 10 14 mph 1020.2mb 58f
4:30am 8 10 mph 1020.2mb 58f
4:20am 5 6 mph 1020.2mb 58f
4:10am 6
mph
1020.2mb 57f
4:00am 7 8 mph 1020.2mb 57f
3:50am 7 9 mph 1020.2mb 57f
3:40am 6 8 mph 1020.2mb 57f
3:30am 8 9 mph 1020mb 57f
3:20am 7 8 mph 1019.9mb 57f
3:10am 7 8 mph 1019.7mb 58f
3:00am 6 8 mph 1019.7mb 58f
2:50am 8
mph
1019.5mb 59f
2:40am 11 15 mph 1019.5mb 59f
2:30am 10 14 mph 1019.5mb 60f
2:20am 11 15 mph 1019.4mb 60f
2:10am 10 13 mph 1019.3mb 60f
2:00am 13 15 mph 1019.2mb 61f
1:50am 14 16 mph 1019.2mb 61f
1:40am 13 17 mph 1019.2mb 62f
1:30am 9 11 mph 1019.1mb 62f
1:20am 15 18 mph 1019mb 63f
1:10am 10 14 mph 1019mb 63f
1:00am 16 23 mph 1018.8mb 64f
12:50am 14 20 mph 1018.8mb 64f
12:40am 14 16 mph 1018.8mb 65f
12:30am 11 15 mph 1018.8mb 65f
12:20am 10 11 mph 1018.8mb 65f
12:10am 14 17 mph 1018.8mb 65f
12:00am 11 15 mph 1018.8mb 65f
Mon 06/27 11:50pm 10 13 mph 1018.8mb 66f
11:40pm 10 14 mph 1018.8mb 66f
11:30pm 10 13 mph 1018.5mb 66f
11:20pm 9 11 mph 1018.4mb 66f
11:10pm 8 13 mph 1018.3mb 66f
11:00pm 10 14 mph 1018.2mb 67f
10:50pm 10 13 mph 1018.2mb 67f
10:40pm 9 10 mph 1018.2mb 67f
10:30pm 10 13 mph 1018.2mb 67f
10:20pm 9 11 mph 1018.2mb 67f
10:10pm 8 11 mph 1018.1mb 67f
10:00pm 8 11 mph 1018.1mb 67f
9:50pm 13 15 mph 1018.2mb 67f
9:40pm 10 14 mph 1018.2mb 67f
9:30pm 11 14 mph 1018mb 67f
9:20pm 13 16 mph 1017.8mb 68f
9:10pm 9 10 mph 1017.7mb 68f
9:00pm 10 14 mph 1017.6mb 68f
8:50pm 13 16 mph 1017.4mb 68f
8:40pm 10 13 mph 1017.5mb 69f
8:30pm 7 8 mph 1017.4mb 70f
8:20pm 6 7 mph 1017mb 69f
8:10pm 7 8 mph 1016.9mb 69f
8:00pm 8 11 mph 1016.9mb 69f
7:50pm 11 13 mph 1016.9mb 70f
7:40pm 10 13 mph 1017mb 71f
7:30pm 9 11 mph 1016.8mb 71f
7:20pm 9 11 mph 1016.8mb 71f
7:10pm 11
mph
1016.8mb 71f
7:00pm 10 11 mph 1016.6mb 72f
6:50pm 10 13 mph 1016.4mb 72f
6:40pm 11 13 mph 1016.4mb 72f
6:30pm 13 14 mph 1016.4mb 73f
6:20pm 13 15 mph 1016.2mb 73f
6:10pm 15 17 mph 1016.1mb 73f
6:00pm 14 15 mph 1015.9mb 73f
5:50pm 13 15 mph 1015.9mb 74f
5:40pm 15 18 mph 1016mb 74f
5:30pm 17 18 mph 1016mb 74f
5:20pm 13 18 mph 1015.7mb 76f
5:10pm 13 16 mph 1015.7mb 75f
5:00pm 17 21 mph 1015.8mb 74f
4:50pm 16 21 mph 1015.8mb 75f
4:40pm 18 23 mph 1016mb 74f
4:30pm 18 22 mph 1016mb 75f
4:20pm 17 22 mph 1016mb 74f
4:10pm 16 18 mph 1016.2mb 74f
4:00pm 15 18 mph 1016.2mb 73f
3:50pm 14 17 mph 1016.3mb 73f
3:40pm 10 15 mph 1016.4mb 73f
3:30pm 11 15 mph 1016.6mb 73f
3:20pm 14 15 mph 1016.6mb 72f
3:10pm 13 14 mph 1016.6mb 72f
3:00pm 13 14 mph 1016.6mb 72f
2:50pm 13 15 mph 1016.7mb 72f
2:40pm 13 14 mph 1016.6mb 73f
2:30pm 11 13 mph 1016.5mb 72f
2:20pm 10
mph
1016.5mb 71f
2:10pm 11 13 mph 1016.5mb 71f
2:00pm 11 13 mph 1016.6mb 72f
1:50pm 9 11 mph 1016.4mb 72f
1:40pm 7 10 mph 1016.3mb 73f
1:30pm 11 13 mph 1016.4mb 71f
1:20pm 13 14 mph 1016.4mb 71f
1:10pm 13 14 mph 1016.4mb 71f
1:00pm 11 14 mph 1016.4mb 71f
12:50pm 14 15 mph 1016.3mb 71f
12:40pm 13 14 mph 1016.2mb 71f
12:30pm 13 15 mph 1016.2mb 70f
12:20pm 13 15 mph 1016.2mb 70f
12:10pm 15 16 mph 1016.2mb 70f
12:00pm 13 15 mph 1016.2mb 69f
11:50am 13 15 mph 1016.1mb 69f
11:40am 15 16 mph 1016mb 69f
11:30am 15 17 mph 1015.9mb 69f
11:20am 14 15 mph 1015.9mb 69f
11:10am 14 15 mph 1015.7mb 69f
11:00am 15 17 mph 1015.7mb 69f
10:50am 16 17 mph 1015.7mb 69f
10:40am 15 16 mph 1015.8mb 69f
10:30am 14 15 mph 1015.8mb 68f
10:20am 14 16 mph 1015.8mb 69f
10:10am 14 15 mph 1015.7mb 68f
10:00am 11 14 mph 1015.6mb 68f
9:50am 11 13 mph 1015.6mb 68f
9:40am 11 14 mph 1015.6mb 68f
9:30am 11 13 mph 1015.6mb 68f
9:20am 11 14 mph 1015.6mb 68f
9:10am 11 13 mph 1015.5mb 68f
9:00am 11 14 mph 1015.6mb 68f
8:50am 13 15 mph 1015.6mb 68f
8:40am 14 15 mph 1015.6mb 68f
8:30am 14 16 mph 1015.5mb 68f
8:20am 16 17 mph 1015.3mb 68f
8:10am 15 16 mph 1015.3mb 68f
8:00am 14 16 mph 1015.3mb 67f
7:50am 13 14 mph 1015.2mb 67f
7:40am 11 14 mph 1015.3mb 68f
7:30am 15 16 mph 1015.2mb 68f
7:20am 15 17 mph 1015.2mb 67f
7:10am 16 17 mph 1015.1mb 67f
7:00am 17 20 mph 1015mb 68f
6:50am 15 17 mph 1014.8mb 68f
6:40am 17 20 mph 1014.7mb 68f
6:30am 17 20 mph 1014.6mb 68f
6:20am 16 17 mph 1014.6mb 68f
6:10am 15 17 mph 1014.6mb 68f
6:00am 14 16 mph 1014.7mb 68f
5:50am 15 17 mph 1014.6mb 68f
5:40am 16 17 mph 1014.7mb 68f
5:30am 17 21 mph 1014.5mb 68f
5:20am 16 18 mph 1014.6mb 67f
5:10am 15 16 mph 1014.7mb 67f
5:00am 14 15 mph 1014.7mb 67f
4:50am 14 15 mph 1014.7mb 67f
4:40am 15 17 mph 1014.5mb 67f
4:30am 15 16 mph 1014.5mb 67f
4:20am 15 16 mph 1014.6mb 67f
4:10am 15 16 mph 1014.5mb 67f
4:00am 15 17 mph 1014.5mb 67f
3:50am 14 15 mph 1014.6mb 67f
3:40am 15 16 mph 1014.6mb 67f
3:30am 15 17 mph 1014.6mb 68f
3:20am 16 17 mph 1014.6mb 68f
3:10am 16 17 mph 1014.6mb 69f
3:00am 18 20 mph 1014.6mb 69f
2:50am 20 22 mph 1014.6mb 69f
2:40am 21 22 mph 1014.6mb 69f
2:30am 18 21 mph 1014.6mb 69f
2:20am 18 20 mph 1014.6mb 68f
2:10am 18 20 mph 1014.7mb 68f
2:00am 18 20 mph 1014.7mb 68f
1:50am 18 21 mph 1014.9mb 69f
1:40am 20 22 mph 1014.9mb 69f
1:30am 20 21 mph 1014.9mb 69f
1:20am 16 17 mph 1015mb 68f
1:10am 15 16 mph 1015.1mb 67f
1:00am 15 17 mph 1015.1mb 68f
12:50am 16 17 mph 1015.3mb 68f
12:40am 16 17 mph 1015.3mb 68f
12:30am 16 17 mph 1015.3mb 68f
12:20am 16 17 mph 1015.3mb 68f
12:10am 17 18 mph 1015.4mb 68f
12:00am 17 18 mph 1015.4mb 68f
Sun 06/26 11:50pm 17 18 mph 1015.3mb 68f
11:40pm 16 17 mph 1015.6mb 68f
11:30pm 16 17 mph 1015.5mb 68f
11:20pm 17 18 mph 1015.4mb 68f
11:10pm 18 20 mph 1015.3mb 68f
11:00pm 17 18 mph 1015.2mb 68f
10:50pm 18 20 mph 1015.2mb 68f
10:40pm 16 17 mph 1015.2mb 68f
10:30pm 16 18 mph 1015.2mb 68f
10:20pm 15 17 mph 1015.2mb 68f
10:10pm 16 18 mph 1015.2mb 68f
10:00pm 17 18 mph 1014.9mb 68f
9:50pm 16 17 mph 1014.8mb 68f
9:40pm 16 17 mph 1014.8mb 68f
9:30pm 15 16 mph 1014.6mb 68f
9:20pm 11 14 mph 1014.5mb 68f
9:10pm 10 11 mph 1014.5mb 68f
9:00pm 13 14 mph 1014.3mb 68f
8:50pm 13 14 mph 1014.1mb 68f
8:40pm 11
mph
1014.1mb 69f
8:30pm 15 21 mph 1014.3mb 71f
8:20pm 15 16 mph 1014.1mb 70f
8:10pm 15 16 mph 1014mb 70f
8:00pm 15 20 mph 1014.2mb 71f
7:50pm 15 17 mph 1014.3mb 71f
7:40pm 13
mph
1014.2mb 71f
7:30pm 15 17 mph 1014.2mb 71f
7:20pm 16 18 mph 1014mb 72f
7:10pm 14 16 mph 1013.9mb 73f
7:00pm 13 14 mph 1013.9mb 73f
6:50pm 11
mph
1013.9mb 73f
6:40pm 13 14 mph 1014mb 73f
6:30pm 13 15 mph 1014.1mb 73f
6:20pm 15 17 mph 1014.3mb 72f
6:10pm 13 15 mph 1014.1mb 72f
6:00pm 11 14 mph 1014.1mb 72f
5:50pm 11 14 mph 1014.3mb 73f
5:40pm 14 15 mph 1014.6mb 73f
5:30pm 11 13 mph 1014.6mb 73f
5:20pm 11 13 mph 1014.6mb 73f
5:10pm 13 14 mph 1014.6mb 73f
5:00pm 13 14 mph 1014.7mb 72f
4:50pm 11 15 mph 1014.7mb 73f
4:40pm 13 14 mph 1014.6mb 73f
4:30pm 13 14 mph 1014.8mb 73f
4:20pm 10 13 mph 1015mb 73f
4:10pm 10 13 mph 1015.1mb 72f
4:00pm 9 11 mph 1015.2mb 73f
3:50pm 10 14 mph 1015.3mb 72f
3:40pm 8 11 mph 1015.3mb 72f
3:30pm 10 13 mph 1015.5mb 72f
3:20pm 11 14 mph 1015.7mb 71f
3:10pm 11 15 mph 1016mb 70f
3:00pm 10 13 mph 1016.1mb 69f
2:50pm 9 10 mph 1016.2mb 69f
2:40pm 9 11 mph 1016.2mb 69f
2:30pm 10 11 mph 1016.3mb 68f
2:20pm 10 13 mph 1016.3mb 68f
2:10pm 13 14 mph 1016.4mb 68f
2:00pm 11 14 mph 1016.3mb 67f
1:50pm 11 13 mph 1016.3mb 67f
1:40pm 13 14 mph 1016.4mb 67f
1:30pm 15 16 mph 1016.3mb 67f
1:20pm 14 16 mph 1016.3mb 67f
1:10pm 13 15 mph 1016.3mb 67f
1:00pm 14 15 mph 1016.3mb 67f
12:50pm 13 14 mph 1016.3mb 67f
12:40pm 13 14 mph 1016.3mb 67f
12:30pm 14 16 mph 1016mb 67f
12:20pm 10 11 mph 1016mb 66f
12:10pm 10 11 mph 1016.2mb 66f
12:00pm 11 14 mph 1016.3mb 66f
11:50am 14 16 mph 1016.2mb 66f
11:40am 16 18 mph 1016.3mb 66f
11:30am 16 17 mph 1016.2mb 67f
11:20am 16 17 mph 1015.8mb 67f
11:10am 10 11 mph 1015.8mb 67f
11:00am 6 7 mph 1015.2mb 68f
10:50am 7 8 mph 1014.8mb 69f
10:40am 7 8 mph 1014.7mb 69f